createdAt,value
2019-06-20T00:00:36.156Z,2.90
2019-06-20T00:03:02.913Z,3.00
2019-06-20T00:05:29.285Z,2.90
2019-06-20T00:07:55.545Z,3.08
2019-06-20T00:10:21.893Z,2.92
2019-06-20T00:13:00.046Z,3.47
2019-06-20T00:15:16.383Z,2.77
2019-06-20T00:17:42.517Z,2.65
2019-06-20T00:20:08.997Z,2.70
2019-06-20T00:22:35.090Z,3.30
2019-06-20T00:25:02.964Z,2.70
2019-06-20T00:27:30.480Z,2.60
2019-06-20T00:29:56.660Z,2.75
2019-06-20T00:32:22.816Z,2.80
2019-06-20T00:34:49.077Z,2.77
2019-06-20T00:37:15.355Z,2.67
2019-06-20T00:39:42.688Z,3.10
2019-06-20T00:42:08.929Z,3.30
2019-06-20T00:44:35.132Z,2.90
2019-06-20T00:47:01.257Z,2.70
2019-06-20T00:49:27.577Z,3.15
2019-06-20T00:51:53.674Z,2.72
2019-06-20T00:54:19.811Z,2.87
2019-06-20T00:56:45.967Z,2.80
2019-06-20T00:59:12.075Z,2.87
2019-06-20T01:01:38.257Z,3.12
2019-06-20T01:04:04.514Z,2.87
2019-06-20T01:06:30.787Z,2.70
2019-06-20T01:08:56.929Z,2.75
2019-06-20T01:11:23.078Z,3.00
2019-06-20T01:13:52.607Z,3.02
2019-06-20T01:16:17.369Z,2.65
2019-06-20T01:18:43.574Z,2.70
2019-06-20T01:21:10.363Z,2.87
2019-06-20T01:23:36.545Z,3.00
2019-06-20T01:26:02.769Z,2.87
2019-06-20T01:28:28.953Z,3.00
2019-06-20T01:30:55.111Z,2.90
2019-06-20T01:33:21.308Z,2.77
2019-06-20T01:35:47.426Z,3.55
2019-06-20T01:38:13.644Z,2.85
2019-06-20T01:40:39.751Z,2.90
2019-06-20T01:43:05.991Z,2.85
2019-06-20T01:45:32.421Z,3.20
2019-06-20T01:47:58.542Z,3.00
2019-06-20T01:50:24.961Z,3.20
2019-06-20T01:52:51.061Z,3.10
2019-06-20T01:55:17.321Z,3.22
2019-06-20T01:57:43.486Z,3.40
2019-06-20T02:00:10.638Z,3.15
2019-06-20T02:02:36.730Z,3.33
2019-06-20T02:05:05.288Z,3.10
2019-06-20T02:07:31.511Z,3.40
2019-06-20T02:09:57.749Z,3.30
2019-06-20T02:12:24.136Z,3.10
2019-06-20T02:14:50.416Z,3.10
2019-06-20T02:17:16.832Z,3.17
2019-06-20T02:19:42.936Z,3.17
2019-06-20T02:22:09.131Z,2.95
2019-06-20T02:24:35.392Z,4.17
2019-06-20T02:27:01.642Z,3.55
2019-06-20T02:29:27.963Z,3.42
2019-06-20T02:31:54.178Z,3.67
2019-06-20T02:34:20.477Z,3.30
2019-06-20T02:36:46.723Z,3.27
2019-06-20T02:39:12.885Z,3.52
2019-06-20T02:41:39.359Z,3.62
2019-06-20T02:44:05.679Z,3.70
2019-06-20T02:46:31.988Z,3.20
2019-06-20T02:48:58.386Z,3.20
2019-06-20T02:51:25.300Z,3.37
2019-06-20T02:53:51.686Z,3.50
2019-06-20T02:56:18.045Z,3.33
2019-06-20T02:58:44.199Z,3.65
2019-06-20T03:01:10.693Z,3.25
2019-06-20T03:03:36.894Z,3.25
2019-06-20T03:06:03.394Z,3.22
2019-06-20T03:08:29.798Z,3.60
2019-06-20T03:10:56.014Z,3.67
2019-06-20T03:13:22.303Z,3.80
2019-06-20T03:15:50.110Z,3.45
2019-06-20T03:18:20.967Z,3.47
2019-06-20T03:20:48.679Z,3.85
2019-06-20T03:23:14.998Z,3.50
2019-06-20T03:25:41.375Z,3.33
2019-06-20T03:28:07.778Z,3.62
2019-06-20T03:30:34.003Z,3.67
2019-06-20T03:33:00.464Z,3.60
2019-06-20T03:35:27.043Z,4.08
2019-06-20T03:38:02.141Z,3.70
2019-06-20T03:40:28.395Z,3.80
2019-06-20T03:42:54.599Z,3.47
2019-06-20T03:45:20.719Z,3.80
2019-06-20T03:47:46.923Z,3.92
2019-06-20T03:50:13.238Z,3.92
2019-06-20T03:52:39.582Z,3.87
2019-06-20T03:55:05.895Z,4.37
2019-06-20T03:57:32.316Z,4.37
2019-06-20T03:59:58.458Z,4.30
2019-06-20T04:02:24.789Z,4.37
2019-06-20T04:04:51.034Z,4.22
2019-06-20T04:07:17.265Z,4.60
2019-06-20T04:09:43.462Z,4.03
2019-06-20T04:12:09.583Z,3.70
2019-06-20T04:14:35.812Z,3.77
2019-06-20T04:17:01.967Z,4.25
2019-06-20T04:19:28.443Z,4.12
2019-06-20T04:21:54.655Z,3.70
2019-06-20T04:24:20.859Z,3.58
2019-06-20T04:26:47.082Z,3.90
2019-06-20T04:29:14.519Z,3.10
2019-06-20T04:31:40.623Z,3.35
2019-06-20T04:34:06.842Z,2.85
2019-06-20T04:36:32.951Z,2.60
2019-06-20T04:38:59.126Z,2.80
2019-06-20T04:41:25.311Z,3.37
2019-06-20T04:43:51.456Z,2.65
2019-06-20T04:46:19.465Z,2.40
2019-06-20T04:48:45.665Z,2.55
2019-06-20T04:51:11.770Z,2.47
2019-06-20T04:53:37.968Z,2.37
2019-06-20T04:56:05.763Z,2.52
2019-06-20T04:58:32.167Z,2.33
2019-06-20T05:00:58.300Z,2.12
2019-06-20T05:03:24.462Z,2.40
2019-06-20T05:05:50.677Z,2.55
2019-06-20T05:08:16.776Z,2.37
2019-06-20T05:10:43.102Z,2.27
2019-06-20T05:13:09.195Z,2.72
2019-06-20T05:15:51.105Z,3.22
2019-06-20T05:18:03.574Z,4.40
2019-06-20T05:20:29.878Z,2.40
2019-06-20T05:22:56.026Z,2.87
2019-06-20T05:25:22.253Z,2.85
2019-06-20T05:27:48.504Z,2.75
2019-06-20T05:30:15.163Z,2.77
2019-06-20T05:32:41.306Z,2.60
2019-06-20T05:35:08.175Z,2.80
2019-06-20T05:37:34.288Z,2.60
2019-06-20T05:40:00.610Z,2.75
2019-06-20T05:42:26.864Z,2.87
2019-06-20T05:44:53.024Z,2.98
2019-06-20T05:47:19.228Z,3.10
2019-06-20T05:49:45.460Z,2.67
2019-06-20T05:52:11.709Z,2.87
2019-06-20T05:54:37.962Z,3.02
2019-06-20T05:57:04.740Z,6.12
2019-06-20T05:59:31.081Z,5.97
2019-06-20T06:01:57.235Z,3.20
2019-06-20T06:04:23.439Z,3.00
2019-06-20T06:06:49.554Z,3.17
2019-06-20T06:09:15.808Z,3.40
2019-06-20T06:11:42.204Z,2.75
2019-06-20T06:14:08.493Z,2.60
2019-06-20T06:16:34.668Z,2.95
2019-06-20T06:19:01.109Z,2.62
2019-06-20T06:21:27.409Z,2.45
2019-06-20T06:23:53.677Z,2.02
2019-06-20T06:26:20.201Z,2.30
2019-06-20T06:28:46.545Z,2.20
2019-06-20T06:31:13.105Z,2.27
2019-06-20T06:33:40.599Z,2.10
2019-06-20T06:36:06.814Z,2.37
2019-06-20T06:38:33.113Z,2.42
2019-06-20T06:40:59.724Z,2.17
2019-06-20T06:43:26.136Z,2.35
2019-06-20T06:45:52.385Z,2.50
2019-06-20T06:48:18.653Z,2.65
2019-06-20T06:50:44.878Z,3.60
2019-06-20T06:53:11.367Z,2.72
2019-06-20T06:55:37.744Z,2.77
2019-06-20T06:58:04.707Z,2.40
2019-06-20T07:00:30.807Z,2.92
2019-06-20T07:02:57.101Z,3.10
2019-06-20T07:05:24.558Z,2.70
2019-06-20T07:07:51.304Z,2.40
2019-06-20T07:10:17.735Z,2.15
2019-06-20T07:12:43.950Z,2.70
2019-06-20T07:15:14.158Z,2.00
2019-06-20T07:17:40.351Z,1.95
2019-06-20T07:20:07.366Z,2.20
2019-06-20T07:22:34.552Z,2.30
2019-06-20T07:25:00.916Z,2.15
2019-06-20T07:27:27.432Z,4.72
2019-06-20T07:29:53.748Z,3.77
2019-06-20T07:32:19.997Z,1.90
2019-06-20T07:34:47.834Z,2.08
2019-06-20T07:37:14.033Z,2.00
2019-06-20T07:39:40.187Z,1.90
2019-06-20T07:42:06.980Z,2.02
2019-06-20T07:44:33.132Z,2.10
2019-06-20T07:46:59.349Z,2.17
2019-06-20T07:49:25.513Z,1.98
2019-06-20T07:51:51.672Z,2.30
2019-06-20T07:54:17.873Z,1.92
2019-06-20T07:56:44.047Z,2.30
2019-06-20T07:59:10.717Z,2.22
2019-06-20T08:01:37.006Z,3.27
2019-06-20T08:04:03.414Z,2.47
2019-06-20T08:06:29.606Z,2.17
2019-06-20T08:08:55.778Z,2.52
2019-06-20T08:11:22.383Z,2.30
2019-06-20T08:13:48.586Z,2.50
2019-06-20T08:16:15.056Z,1.90
2019-06-20T08:18:41.384Z,1.98
2019-06-20T08:21:07.787Z,2.15
2019-06-20T08:23:34.751Z,2.10
2019-06-20T08:26:00.879Z,2.20
2019-06-20T08:28:27.184Z,2.08
2019-06-20T08:30:54.145Z,2.40
2019-06-20T08:33:20.652Z,2.12
2019-06-20T08:35:46.960Z,2.12
2019-06-20T08:38:13.380Z,2.20
2019-06-20T08:40:39.731Z,2.58
2019-06-20T08:43:06.397Z,1.90
2019-06-20T08:45:33.869Z,2.52
2019-06-20T08:48:00.210Z,2.55
2019-06-20T08:50:26.751Z,2.25
2019-06-20T08:52:52.906Z,2.35
2019-06-20T08:55:19.276Z,2.30
2019-06-20T08:57:45.688Z,2.40
2019-06-20T09:00:14.290Z,2.20
2019-06-20T09:02:40.575Z,2.80
2019-06-20T09:05:07.674Z,2.30
2019-06-20T09:07:34.288Z,2.37
2019-06-20T09:10:01.846Z,2.45
2019-06-20T09:12:28.338Z,2.35
2019-06-20T09:14:55.152Z,2.50
2019-06-20T09:17:21.442Z,2.45
2019-06-20T09:19:47.537Z,2.60
2019-06-20T09:22:13.760Z,8.60
2019-06-20T09:24:39.835Z,2.47
2019-06-20T09:27:06.046Z,2.25
2019-06-20T09:29:41.388Z,2.70
2019-06-20T09:32:00.467Z,2.60
2019-06-20T09:34:26.630Z,2.42
2019-06-20T09:36:55.123Z,2.60
2019-06-20T09:39:21.532Z,2.15
2019-06-20T09:41:48.251Z,2.22
2019-06-20T09:44:14.363Z,1.92
2019-06-20T09:46:40.564Z,2.00
2019-06-20T09:49:06.798Z,3.87
2019-06-20T09:51:33.100Z,2.60
2019-06-20T09:53:59.210Z,1.80
2019-06-20T09:56:25.423Z,1.50
2019-06-20T09:58:51.530Z,1.50
2019-06-20T10:01:17.740Z,1.57
2019-06-20T10:03:44.393Z,1.45
2019-06-20T10:06:13.973Z,1.30
2019-06-20T10:08:38.790Z,1.40
2019-06-20T10:11:05.988Z,1.37
2019-06-20T10:13:32.929Z,1.20
2019-06-20T10:15:59.358Z,1.70
2019-06-20T10:18:25.572Z,1.42
2019-06-20T10:20:53.025Z,1.75
2019-06-20T10:23:19.351Z,1.90
2019-06-20T10:25:46.672Z,2.20
2019-06-20T10:28:13.563Z,2.00
2019-06-20T10:30:39.735Z,2.08
2019-06-20T10:33:06.094Z,2.00
2019-06-20T10:35:32.556Z,2.42
2019-06-20T10:37:58.731Z,2.17
2019-06-20T10:40:26.318Z,1.70
2019-06-20T10:42:52.948Z,1.70
2019-06-20T10:45:21.798Z,1.67
2019-06-20T10:47:49.034Z,1.72
2019-06-20T10:50:15.873Z,1.70
2019-06-20T10:52:43.396Z,1.57
2019-06-20T10:55:10.297Z,1.60
2019-06-20T10:57:36.762Z,1.37
2019-06-20T11:00:09.818Z,1.20
2019-06-20T11:02:36.081Z,1.32
2019-06-20T11:05:04.872Z,1.47
2019-06-20T11:07:31.144Z,1.00
2019-06-20T11:09:57.321Z,1.22
2019-06-20T11:12:23.533Z,1.10
2019-06-20T11:14:49.706Z,0.85
2019-06-20T11:17:16.171Z,1.05
2019-06-20T11:19:43.775Z,1.12
2019-06-20T11:22:10.059Z,0.95
2019-06-20T11:24:38.876Z,1.02
2019-06-20T11:27:04.403Z,1.00
2019-06-20T11:29:30.599Z,0.85
2019-06-20T11:31:56.828Z,0.70
2019-06-20T11:34:23.253Z,1.00
2019-06-20T11:36:49.500Z,1.15
2019-06-20T11:39:15.744Z,0.90
2019-06-20T11:41:41.983Z,0.75
2019-06-20T11:44:08.164Z,0.80
2019-06-20T11:46:35.420Z,0.80
2019-06-20T11:49:03.724Z,1.00
2019-06-20T11:51:30.065Z,0.80
2019-06-20T11:53:56.385Z,0.93
2019-06-20T11:56:22.696Z,0.60
2019-06-20T11:58:48.975Z,0.90
2019-06-20T12:01:15.369Z,0.80
2019-06-20T12:03:42.530Z,0.82
2019-06-20T12:06:08.755Z,0.70
2019-06-20T12:08:34.960Z,0.75
2019-06-20T12:11:01.162Z,0.70
2019-06-20T12:13:27.375Z,0.75
2019-06-20T12:15:53.484Z,0.95
2019-06-20T12:18:19.690Z,0.60
2019-06-20T12:20:46.814Z,0.70
2019-06-20T12:23:13.076Z,0.60
2019-06-20T12:25:40.886Z,0.57
2019-06-20T12:28:07.482Z,0.50
2019-06-20T12:30:33.581Z,0.50
2019-06-20T12:32:59.782Z,0.70
2019-06-20T12:35:26.015Z,0.88
2019-06-20T12:37:52.314Z,1.00
2019-06-20T12:40:19.035Z,0.90
2019-06-20T12:42:46.643Z,0.50
2019-06-20T12:45:14.091Z,0.70
2019-06-20T12:47:41.785Z,0.60
2019-06-20T12:50:08.704Z,0.60
2019-06-20T12:52:36.003Z,0.60
2019-06-20T12:55:03.948Z,0.60
2019-06-20T12:57:30.153Z,0.60
2019-06-20T12:59:56.617Z,0.60
2019-06-20T13:02:23.180Z,1.17
2019-06-20T13:04:50.603Z,0.60
2019-06-20T13:07:16.965Z,0.60
2019-06-20T13:09:44.013Z,0.60
2019-06-20T13:12:10.259Z,0.60
2019-06-20T13:14:36.362Z,0.70
2019-06-20T13:17:02.784Z,0.90
2019-06-20T13:19:28.911Z,0.60
2019-06-20T13:21:55.128Z,0.75
2019-06-20T13:24:21.288Z,0.70
2019-06-20T13:26:48.881Z,0.85
2019-06-20T13:29:15.631Z,0.60
2019-06-20T13:32:00.521Z,0.68
2019-06-20T13:34:09.899Z,0.82
2019-06-20T13:36:36.171Z,0.98
2019-06-20T13:39:05.627Z,0.57
2019-06-20T13:41:32.287Z,0.70
2019-06-20T13:43:58.530Z,0.50
2019-06-20T13:46:24.684Z,0.70
2019-06-20T13:48:50.900Z,0.88
2019-06-20T13:51:17.561Z,0.57
2019-06-20T13:53:46.267Z,0.50
2019-06-20T13:56:12.995Z,0.80
2019-06-20T13:58:40.693Z,0.68
2019-06-20T14:01:08.366Z,0.53
2019-06-20T14:03:35.138Z,0.70
2019-06-20T14:06:01.886Z,4.42
2019-06-20T14:08:28.316Z,0.88
2019-06-20T14:10:58.804Z,0.88
2019-06-20T14:13:25.321Z,0.80
2019-06-20T14:15:51.546Z,0.90
2019-06-20T14:18:17.813Z,0.60
2019-06-20T14:20:44.841Z,0.90
2019-06-20T14:23:11.176Z,0.88
2019-06-20T14:25:37.436Z,0.98
2019-06-20T14:28:03.814Z,0.80
2019-06-20T14:30:30.189Z,0.75
2019-06-20T14:32:56.754Z,0.80
2019-06-20T14:35:23.271Z,1.15
2019-06-20T14:37:51.563Z,0.95
2019-06-20T14:40:17.785Z,0.62
2019-06-20T14:42:44.552Z,0.80
2019-06-20T14:45:12.569Z,0.98
2019-06-20T14:47:38.864Z,0.70
2019-06-20T14:50:07.325Z,0.65
2019-06-20T14:52:33.542Z,1.20
2019-06-20T14:54:59.661Z,0.60
2019-06-20T14:57:27.056Z,0.85
2019-06-20T14:59:54.405Z,0.60
2019-06-20T15:02:20.667Z,0.70
2019-06-20T15:04:47.847Z,0.90
2019-06-20T15:07:14.286Z,0.70
2019-06-20T15:09:40.460Z,0.68
2019-06-20T15:12:06.608Z,0.60
2019-06-20T15:14:32.773Z,0.50
2019-06-20T15:16:59.098Z,0.70
2019-06-20T15:19:25.594Z,0.45
2019-06-20T15:21:52.143Z,7.33
2019-06-20T15:24:18.353Z,2.47
2019-06-20T15:26:45.859Z,0.70
2019-06-20T15:29:12.831Z,0.60
2019-06-20T15:31:39.052Z,0.60
2019-06-20T15:34:05.791Z,0.70
2019-06-20T15:36:32.175Z,0.78
2019-06-20T15:38:58.391Z,0.65
2019-06-20T15:41:28.719Z,0.70
2019-06-20T15:44:02.909Z,0.50
2019-06-20T15:46:30.620Z,0.70
2019-06-20T15:48:59.838Z,0.55
2019-06-20T15:51:25.170Z,0.47
2019-06-20T15:53:51.852Z,1.65
2019-06-20T15:56:18.127Z,3.05
2019-06-20T15:58:44.418Z,0.50
2019-06-20T16:01:18.900Z,0.60
2019-06-20T16:03:50.583Z,0.90
2019-06-20T16:06:19.786Z,1.10
2019-06-20T16:08:46.465Z,1.05
2019-06-20T16:11:13.149Z,0.72
2019-06-20T16:13:39.345Z,0.70
2019-06-20T16:16:05.802Z,0.70
2019-06-20T16:18:32.095Z,0.60
2019-06-20T16:20:59.566Z,1.22
2019-06-20T16:23:26.041Z,3.87
2019-06-20T16:25:54.084Z,9.23
2019-06-20T16:28:20.520Z,1.00
2019-06-20T16:30:47.975Z,0.88
2019-06-20T16:33:25.138Z,8.15
2019-06-20T16:35:51.280Z,6.45
2019-06-20T16:38:23.119Z,5.37
2019-06-20T16:40:49.922Z,0.88
2019-06-20T16:43:16.351Z,0.70
2019-06-20T16:45:43.013Z,0.90
2019-06-20T16:48:09.475Z,0.78
2019-06-20T16:50:38.859Z,0.80
2019-06-20T16:53:05.347Z,0.90
2019-06-20T16:55:35.930Z,1.00
2019-06-20T16:58:04.559Z,0.90
2019-06-20T17:00:31.292Z,0.90
2019-06-20T17:02:57.653Z,0.98
2019-06-20T17:05:24.281Z,1.07
2019-06-20T17:07:52.697Z,0.90
2019-06-20T17:10:30.267Z,1.10
2019-06-20T17:12:58.111Z,0.80
2019-06-20T17:15:28.740Z,0.88
2019-06-20T17:18:00.559Z,0.68
2019-06-20T17:20:29.636Z,1.72
2019-06-20T17:22:56.949Z,0.80
2019-06-20T17:25:23.294Z,0.60
2019-06-20T17:27:49.602Z,1.00
2019-06-20T17:30:18.004Z,0.80
2019-06-20T17:32:44.315Z,0.90
2019-06-20T17:35:10.776Z,1.17
2019-06-20T17:37:37.179Z,1.00
2019-06-20T17:40:07.980Z,0.80
2019-06-20T17:42:34.344Z,0.90
2019-06-20T17:45:00.497Z,1.25
2019-06-20T17:47:27.553Z,1.25
2019-06-20T17:49:53.860Z,0.75
2019-06-20T17:52:20.222Z,0.90
2019-06-20T17:54:46.505Z,1.10
2019-06-20T17:57:12.722Z,1.10
2019-06-20T17:59:41.017Z,1.20
2019-06-20T18:02:07.942Z,1.00
2019-06-20T18:04:34.177Z,1.07
2019-06-20T18:07:00.432Z,1.15
2019-06-20T18:09:29.372Z,1.45
2019-06-20T18:11:55.933Z,1.25
2019-06-20T18:14:22.234Z,1.30
2019-06-20T18:16:48.387Z,1.10
2019-06-20T18:19:14.740Z,1.17
2019-06-20T18:21:41.123Z,1.22
2019-06-20T18:24:07.329Z,1.35
2019-06-20T18:26:33.781Z,1.37
2019-06-20T18:28:59.930Z,1.30
2019-06-20T18:31:26.092Z,1.10
2019-06-20T18:33:52.331Z,1.15
2019-06-20T18:36:18.484Z,1.12
2019-06-20T18:38:46.265Z,1.10
2019-06-20T18:41:12.531Z,1.00
2019-06-20T18:43:38.672Z,1.32
2019-06-20T18:46:05.316Z,1.30
2019-06-20T18:48:31.852Z,1.10
2019-06-20T18:50:58.126Z,1.22
2019-06-20T18:53:24.401Z,1.10
2019-06-20T18:55:50.553Z,1.40
2019-06-20T18:58:16.784Z,1.40
2019-06-20T19:00:42.994Z,1.27
2019-06-20T19:03:09.198Z,1.00
2019-06-20T19:05:36.367Z,1.22
2019-06-20T19:08:03.316Z,1.37
2019-06-20T19:10:33.343Z,2.80
2019-06-20T19:12:57.675Z,1.77
2019-06-20T19:15:24.306Z,4.87
2019-06-20T19:17:52.414Z,2.40
2019-06-20T19:20:19.379Z,1.80
2019-06-20T19:22:45.620Z,1.30
2019-06-20T19:25:12.230Z,1.27
2019-06-20T19:27:46.280Z,1.25
2019-06-20T19:30:08.855Z,1.10
2019-06-20T19:32:35.289Z,1.12
2019-06-20T19:35:03.100Z,1.10
2019-06-20T19:37:29.322Z,1.00
2019-06-20T19:39:55.694Z,1.20
2019-06-20T19:42:24.105Z,1.10
2019-06-20T19:44:50.494Z,1.10
2019-06-20T19:47:17.383Z,1.15
2019-06-20T19:49:43.702Z,1.10
2019-06-20T19:52:11.843Z,1.05
2019-06-20T19:54:38.326Z,0.90
2019-06-20T19:57:04.733Z,1.32
2019-06-20T19:59:30.931Z,1.17
2019-06-20T20:01:57.194Z,1.10
2019-06-20T20:04:23.471Z,1.10
2019-06-20T20:06:49.853Z,1.50
2019-06-20T20:09:16.191Z,3.33
2019-06-20T20:11:43.454Z,1.32
2019-06-20T20:14:09.833Z,1.80
2019-06-20T20:16:35.954Z,1.42
2019-06-20T20:19:02.651Z,1.12
2019-06-20T20:21:29.241Z,1.10
2019-06-20T20:23:55.928Z,1.15
2019-06-20T20:26:23.159Z,1.20
2019-06-20T20:28:49.457Z,1.20
2019-06-20T20:31:20.190Z,1.00
2019-06-20T20:33:46.505Z,1.20
2019-06-20T20:36:24.578Z,1.20
2019-06-20T20:38:40.869Z,1.30
2019-06-20T20:41:07.133Z,1.22
2019-06-20T20:43:33.613Z,1.30
2019-06-20T20:46:00.932Z,0.90
2019-06-20T20:48:27.250Z,1.30
2019-06-20T20:50:53.505Z,1.10
2019-06-20T20:53:19.782Z,1.30
2019-06-20T20:55:46.031Z,0.90
2019-06-20T20:58:12.235Z,1.20
2019-06-20T21:00:45.086Z,1.40
2019-06-20T21:03:11.251Z,1.40
2019-06-20T21:05:50.620Z,1.30
2019-06-20T21:08:05.675Z,1.40
2019-06-20T21:10:31.843Z,1.65
2019-06-20T21:12:58.017Z,1.50
2019-06-20T21:15:24.257Z,1.47
2019-06-20T21:17:50.416Z,1.47
2019-06-20T21:20:17.827Z,1.52
2019-06-20T21:22:43.939Z,1.40
2019-06-20T21:25:10.443Z,1.50
2019-06-20T21:27:36.566Z,1.42
2019-06-20T21:30:06.323Z,1.42
2019-06-20T21:32:32.641Z,1.40
2019-06-20T21:34:58.929Z,1.45
2019-06-20T21:37:25.242Z,1.50
2019-06-20T21:39:51.445Z,1.30
2019-06-20T21:42:17.750Z,1.30
2019-06-20T21:44:44.038Z,1.10
2019-06-20T21:47:11.309Z,1.30
2019-06-20T21:49:37.461Z,1.40
2019-06-20T21:52:03.845Z,1.22
2019-06-20T21:54:30.227Z,1.30
2019-06-20T21:56:56.388Z,1.27
2019-06-20T21:59:22.536Z,1.25
2019-06-20T22:01:48.808Z,1.00
2019-06-20T22:04:15.148Z,1.20
2019-06-20T22:06:41.426Z,1.55
2019-06-20T22:09:07.666Z,1.25
2019-06-20T22:11:34.820Z,1.17
2019-06-20T22:14:00.996Z,1.30
2019-06-20T22:16:27.137Z,1.65
2019-06-20T22:18:53.273Z,1.22
2019-06-20T22:21:19.431Z,1.70
2019-06-20T22:23:46.669Z,1.30
2019-06-20T22:26:12.832Z,1.30
2019-06-20T22:28:39.143Z,1.40
2019-06-20T22:31:05.445Z,1.40
2019-06-20T22:33:31.883Z,1.40
2019-06-20T22:35:57.970Z,1.37
2019-06-20T22:38:24.197Z,1.20
2019-06-20T22:40:50.402Z,1.42
2019-06-20T22:43:16.741Z,1.60
2019-06-20T22:45:43.008Z,1.30
2019-06-20T22:48:09.398Z,1.30
2019-06-20T22:50:35.651Z,1.47
2019-06-20T22:53:02.003Z,1.20
2019-06-20T22:55:28.150Z,1.40
2019-06-20T22:57:54.308Z,1.47
2019-06-20T23:00:21.036Z,1.32
2019-06-20T23:02:47.359Z,1.30
2019-06-20T23:05:13.675Z,1.42
2019-06-20T23:07:40.029Z,1.27
2019-06-20T23:10:10.851Z,1.35
2019-06-20T23:12:35.682Z,1.45
2019-06-20T23:15:03.530Z,1.50
2019-06-20T23:17:29.683Z,1.55
2019-06-20T23:19:55.828Z,1.27
2019-06-20T23:22:21.984Z,1.30
2019-06-20T23:24:48.252Z,1.35
2019-06-20T23:27:14.411Z,1.47
2019-06-20T23:29:40.569Z,1.25
2019-06-20T23:32:06.719Z,1.45
2019-06-20T23:34:32.873Z,1.20
2019-06-20T23:37:12.194Z,1.35
2019-06-20T23:39:28.451Z,1.47
2019-06-20T23:41:54.869Z,1.40
2019-06-20T23:44:20.974Z,1.22
2019-06-20T23:46:47.209Z,1.25
2019-06-20T23:49:13.343Z,1.60
2019-06-20T23:51:44.472Z,1.47
2019-06-20T23:54:10.586Z,1.20
2019-06-20T23:56:36.833Z,1.50
2019-06-20T23:59:03.312Z,1.70
